Time;durP1;ratioP1;P1;durP2;ratioP2;P2;SDS_P1;SDS_P2;PMS_P1;PMS_P2;Temp;Humidity;BMP_temperature;BMP_pressure;BME280_temperature;BME280_humidity;BME280_pressure;Samples;Min_cycle;Max_cycle;Signal;HPM_P1;HPM_P2
2024/04/04 00:01:20;;;;;;;4.77;2.03;;;14.40;51.10;;;;;;5065015;28;20222;-57
2024/04/04 00:03:46;;;;;;;3.50;2.10;;;14.40;51.10;;;;;;5062210;28;20203;-57
2024/04/04 00:06:12;;;;;;;4.17;2.57;;;14.40;51.10;;;;;;5057690;28;20580;-57
2024/04/04 00:08:39;;;;;;;3.00;2.17;;;14.40;51.10;;;;;;5064246;28;20200;-57
2024/04/04 00:11:09;;;;;;;3.70;2.30;;;14.40;51.10;;;;;;5056465;28;20230;-57
2024/04/04 00:13:37;;;;;;;3.27;2.20;;;14.40;51.20;;;;;;5063534;28;20196;-57
2024/04/04 00:16:03;;;;;;;3.70;2.30;;;14.40;51.10;;;;;;5061758;28;20235;-57
2024/04/04 00:18:30;;;;;;;2.93;2.27;;;14.40;51.80;;;;;;5060204;28;20236;-57
2024/04/04 00:20:56;;;;;;;3.13;2.37;;;14.40;51.20;;;;;;5052363;28;20235;-57
2024/04/04 00:23:23;;;;;;;2.40;1.87;;;14.40;51.10;;;;;;5072271;28;20212;-57
2024/04/04 00:25:49;;;;;;;2.20;1.97;;;14.40;51.10;;;;;;5054986;28;20215;-57
2024/04/04 00:28:15;;;;;;;2.13;1.80;;;14.40;51.20;;;;;;5067485;28;20198;-57
2024/04/04 00:30:42;;;;;;;3.23;2.30;;;14.40;51.20;;;;;;5065036;28;20224;-57
2024/04/04 00:33:10;;;;;;;3.27;2.00;;;14.40;51.10;;;;;;5058407;28;20234;-57
2024/04/04 00:35:35;;;;;;;4.07;2.13;;;14.40;51.20;;;;;;5061965;28;20236;-57
2024/04/04 00:38:02;;;;;;;3.13;2.00;;;14.40;51.20;;;;;;5073201;28;20226;-57
2024/04/04 00:40:34;;;;;;;3.57;2.33;;;14.40;51.20;;;;;;5061581;28;20226;-57
2024/04/04 00:43:01;;;;;;;3.33;2.43;;;14.40;51.90;;;;;;5061331;28;20678;-57
2024/04/04 00:45:27;;;;;;;3.33;2.20;;;14.40;51.20;;;;;;5060926;28;20201;-57
2024/04/04 00:47:55;;;;;;;3.97;2.10;;;14.40;51.20;;;;;;5063935;28;20656;-57
2024/04/04 00:50:21;;;;;;;3.13;2.30;;;14.40;51.20;;;;;;5054400;28;20227;-57
2024/04/04 00:52:49;;;;;;;4.33;1.97;;;14.40;51.20;;;;;;5064895;28;20675;-57
2024/04/04 00:55:16;;;;;;;3.33;2.00;;;14.40;51.20;;;;;;5054898;28;20221;-57
2024/04/04 00:57:44;;;;;;;3.10;1.97;;;14.40;51.20;;;;;;5059021;28;20211;-57
2024/04/04 01:00:11;;;;;;;4.07;2.10;;;14.40;51.20;;;;;;5059772;28;20263;-57
2024/04/04 01:02:38;;;;;;;1.90;1.63;;;14.40;51.20;;;;;;5060048;28;20283;-57
2024/04/04 01:05:06;;;;;;;2.33;1.70;;;14.40;51.20;;;;;;5059220;28;20210;-57
2024/04/04 01:07:34;;;;;;;2.37;1.77;;;14.40;51.20;;;;;;5060353;28;20685;-56
2024/04/04 01:10:04;;;;;;;2.37;1.70;;;14.40;51.20;;;;;;5058610;28;20204;-57
2024/04/04 01:12:30;;;;;;;2.73;2.27;;;14.40;51.30;;;;;;5048345;28;20284;-60
2024/04/04 01:14:56;;;;;;;3.70;1.93;;;14.40;51.30;;;;;;5057116;28;20227;-57
2024/04/04 01:17:24;;;;;;;2.77;1.80;;;14.40;51.30;;;;;;5052110;28;20657;-57
2024/04/04 01:19:50;;;;;;;1.90;1.70;;;14.40;51.30;;;;;;5059594;28;20273;-57
2024/04/04 01:22:18;;;;;;;3.50;1.80;;;14.40;51.30;;;;;;5050813;28;20200;-57
2024/04/04 01:24:45;;;;;;;2.73;1.73;;;14.40;51.30;;;;;;5052851;28;20665;-57
2024/04/04 01:27:12;;;;;;;1.90;1.63;;;14.40;51.30;;;;;;5046600;28;20207;-57
2024/04/04 01:29:38;;;;;;;2.90;1.70;;;14.40;51.30;;;;;;5048891;28;20294;-57
2024/04/04 01:32:05;;;;;;;2.57;1.73;;;14.40;51.30;;;;;;5044862;28;20311;-57
2024/04/04 01:34:31;;;;;;;2.10;1.60;;;14.40;51.30;;;;;;5052362;28;20207;-57
2024/04/04 01:36:58;;;;;;;3.90;1.60;;;14.40;51.30;;;;;;5054406;28;20756;-57
2024/04/04 01:39:23;;;;;;;2.20;1.87;;;14.40;51.30;;;;;;5059516;28;20205;-57
2024/04/04 01:41:52;;;;;;;2.17;1.43;;;14.40;51.30;;;;;;5056557;28;20233;-57
2024/04/04 01:44:17;;;;;;;1.60;1.50;;;14.40;52.00;;;;;;5065421;28;20204;-57
2024/04/04 01:46:44;;;;;;;1.67;1.40;;;14.40;51.30;;;;;;5060309;28;20805;-57
2024/04/04 01:49:10;;;;;;;2.00;1.60;;;14.40;51.30;;;;;;5057014;28;20205;-57
2024/04/04 01:51:36;;;;;;;2.60;1.80;;;14.40;51.30;;;;;;5059921;28;20734;-57
2024/04/04 01:54:02;;;;;;;2.00;1.50;;;14.40;51.30;;;;;;5059133;28;20214;-57
2024/04/04 01:56:29;;;;;;;2.50;1.70;;;14.40;51.30;;;;;;5055397;28;20220;-57
2024/04/04 01:58:57;;;;;;;2.33;1.87;;;14.40;51.40;;;;;;5054385;28;20212;-57
2024/04/04 02:01:23;;;;;;;1.70;1.40;;;14.40;51.30;;;;;;5056927;28;20385;-57
2024/04/04 02:03:49;;;;;;;2.07;1.47;;;14.40;51.30;;;;;;5062978;28;20666;-57
2024/04/04 02:06:16;;;;;;;2.27;1.50;;;14.40;51.40;;;;;;5056943;28;20207;-57
2024/04/04 02:08:42;;;;;;;1.57;1.47;;;14.40;51.40;;;;;;5059079;28;20286;-57
2024/04/04 02:11:08;;;;;;;2.93;1.83;;;14.40;51.40;;;;;;5062037;28;20401;-57
2024/04/04 02:13:34;;;;;;;2.23;1.50;;;14.40;51.40;;;;;;5066605;28;20203;-57
2024/04/04 02:16:04;;;;;;;1.60;1.50;;;14.30;51.40;;;;;;5066345;28;20295;-57
2024/04/04 02:18:30;;;;;;;2.37;1.50;;;14.30;51.40;;;;;;5060501;28;20299;-57
2024/04/04 02:20:56;;;;;;;3.37;1.50;;;14.40;51.40;;;;;;5058496;28;20307;-57
2024/04/04 02:23:22;;;;;;;2.33;1.40;;;14.40;51.40;;;;;;5064162;28;20210;-57
2024/04/04 02:25:49;;;;;;;2.53;1.60;;;14.40;51.50;;;;;;5049595;28;20204;-57
2024/04/04 02:28:15;;;;;;;1.90;1.47;;;14.30;52.10;;;;;;5061361;28;20200;-57
2024/04/04 02:30:41;;;;;;;2.10;1.40;;;14.30;51.50;;;;;;5059709;28;20231;-57
2024/04/04 02:33:08;;;;;;;1.43;1.23;;;14.40;51.50;;;;;;5063409;28;20211;-57
2024/04/04 02:35:35;;;;;;;2.03;1.60;;;14.40;51.60;;;;;;5051865;28;20227;-57
2024/04/04 02:38:01;;;;;;;2.07;1.40;;;14.40;51.60;;;;;;5062403;28;20570;-57
2024/04/04 02:40:28;;;;;;;1.47;1.30;;;14.40;51.60;;;;;;5050082;28;20227;-57
2024/04/04 02:42:54;;;;;;;3.27;1.87;;;14.40;51.60;;;;;;5055767;28;20210;-57
2024/04/04 02:45:22;;;;;;;2.30;1.50;;;14.30;51.60;;;;;;5058166;28;20202;-57
2024/04/04 02:47:47;;;;;;;1.93;1.60;;;14.30;51.60;;;;;;5053691;28;20573;-57
2024/04/04 02:50:16;;;;;;;2.37;1.20;;;14.40;51.60;;;;;;5045422;28;20220;-57
2024/04/04 02:52:41;;;;;;;2.63;1.30;;;14.30;51.70;;;;;;5058370;28;20265;-57
2024/04/04 02:55:09;;;;;;;2.53;1.40;;;14.40;51.70;;;;;;5060080;28;20239;-57
2024/04/04 02:57:38;;;;;;;1.80;1.50;;;14.30;51.70;;;;;;5048811;28;20223;-57
2024/04/04 03:00:08;;;;;;;2.23;1.60;;;14.40;51.70;;;;;;5063049;28;20278;-57
2024/04/04 03:02:34;;;;;;;2.67;1.40;;;14.40;51.70;;;;;;5055655;28;20202;-57
2024/04/04 03:05:01;;;;;;;2.37;1.50;;;14.40;51.70;;;;;;5047279;28;20580;-57
2024/04/04 03:07:28;;;;;;;2.50;1.43;;;14.40;51.70;;;;;;5046320;28;20201;-57
2024/04/04 03:09:55;;;;;;;1.60;1.20;;;14.40;51.80;;;;;;5041355;28;20212;-57
2024/04/04 03:12:20;;;;;;;1.83;1.30;;;14.40;51.70;;;;;;5050813;28;20202;-57
2024/04/04 03:14:47;;;;;;;2.17;1.37;;;14.40;51.70;;;;;;5055449;28;20231;-57
2024/04/04 03:17:13;;;;;;;2.00;1.60;;;14.40;51.80;;;;;;5063856;28;20228;-57
2024/04/04 03:19:40;;;;;;;1.50;1.30;;;14.40;51.80;;;;;;5051010;28;20217;-57
2024/04/04 03:22:05;;;;;;;2.03;1.30;;;14.40;51.80;;;;;;5055044;28;20242;-57
2024/04/04 03:24:36;;;;;;;1.70;1.30;;;14.40;51.80;;;;;;5059948;28;20211;-57
2024/04/04 03:27:01;;;;;;;1.90;1.60;;;14.40;51.80;;;;;;5057864;28;20600;-57
2024/04/04 03:29:28;;;;;;;1.57;1.37;;;14.40;51.80;;;;;;5063300;28;20252;-57
2024/04/04 03:31:54;;;;;;;1.80;1.30;;;14.30;51.80;;;;;;5050205;28;20228;-57
2024/04/04 03:34:21;;;;;;;2.73;1.60;;;14.40;51.80;;;;;;5058034;28;20568;-57
2024/04/04 03:36:47;;;;;;;2.03;1.30;;;14.30;51.80;;;;;;5061797;28;20688;-57
2024/04/04 03:39:14;;;;;;;1.20;1.10;;;14.40;51.90;;;;;;5057062;28;20200;-57
2024/04/04 03:41:43;;;;;;;1.30;1.20;;;14.40;52.60;;;;;;5049274;28;20221;-56
2024/04/04 03:44:09;;;;;;;1.20;1.10;;;14.40;51.80;;;;;;5063121;28;20201;-57
2024/04/04 03:46:36;;;;;;;1.67;1.17;;;14.40;51.90;;;;;;5065677;28;20196;-57
2024/04/04 03:49:01;;;;;;;1.60;1.17;;;14.40;51.90;;;;;;5048909;28;20205;-57
2024/04/04 03:51:28;;;;;;;3.63;1.57;;;14.40;52.50;;;;;;5059691;28;20680;-57
2024/04/04 03:53:54;;;;;;;2.70;1.50;;;14.40;51.90;;;;;;5059183;28;20209;-57
2024/04/04 03:56:21;;;;;;;2.13;1.27;;;14.40;51.90;;;;;;5049674;28;20231;-57
2024/04/04 03:58:48;;;;;;;1.77;1.20;;;14.40;51.90;;;;;;5062332;28;20209;-57
2024/04/04 04:01:15;;;;;;;1.57;1.10;;;14.40;51.90;;;;;;5060641;28;20232;-56
2024/04/04 04:03:40;;;;;;;2.00;1.17;;;14.40;51.90;;;;;;5064086;28;20554;-57
2024/04/04 04:06:07;;;;;;;1.87;1.03;;;14.40;51.90;;;;;;5056056;28;20211;-57
2024/04/04 04:08:33;;;;;;;1.77;1.33;;;14.40;52.00;;;;;;5068041;28;20231;-57
2024/04/04 04:11:00;;;;;;;1.77;1.20;;;14.40;52.00;;;;;;5060407;28;20767;-57
2024/04/04 04:13:25;;;;;;;1.20;1.07;;;14.40;51.90;;;;;;5067080;28;20230;-57
2024/04/04 04:15:58;;;;;;;1.77;1.30;;;14.30;52.00;;;;;;5064839;28;20670;-57
2024/04/04 04:18:24;;;;;;;2.60;1.10;;;14.40;52.00;;;;;;5058097;28;20211;-57
2024/04/04 04:23:35;;;;;;;2.30;1.20;;;14.40;52.00;;;;;;5060124;28;20210;-57
2024/04/04 04:26:01;;;;;;;1.00;1.00;;;14.40;52.00;;;;;;5056586;28;20199;-57
2024/04/04 04:28:28;;;;;;;1.27;0.97;;;14.40;52.00;;;;;;5069825;28;20202;-57
2024/04/04 04:30:54;;;;;;;1.73;1.30;;;14.40;52.00;;;;;;5068876;28;20588;-57
2024/04/04 04:33:22;;;;;;;1.20;1.10;;;14.30;52.00;;;;;;5060408;28;20637;-57
2024/04/04 04:35:47;;;;;;;1.20;1.10;;;14.40;52.00;;;;;;5063369;28;20215;-57
2024/04/04 04:38:14;;;;;;;1.80;1.20;;;14.30;52.10;;;;;;5065306;28;20205;-57
2024/04/04 04:40:43;;;;;;;1.83;1.30;;;14.30;52.10;;;;;;5051776;28;20223;-57
2024/04/04 04:43:09;;;;;;;2.03;1.13;;;14.30;52.00;;;;;;5062903;28;20209;-57
2024/04/04 04:45:36;;;;;;;2.07;1.17;;;14.30;52.10;;;;;;5066999;28;20211;-57
2024/04/04 04:48:02;;;;;;;1.20;1.10;;;14.40;52.10;;;;;;5052088;28;20229;-56
2024/04/04 04:50:30;;;;;;;1.00;1.00;;;14.40;52.10;;;;;;5063050;28;20252;-56
2024/04/04 04:52:56;;;;;;;2.17;0.90;;;14.40;52.10;;;;;;5058424;28;20227;-56
2024/04/04 04:55:23;;;;;;;1.50;0.90;;;14.30;52.10;;;;;;5052400;28;20645;-56
2024/04/04 04:57:48;;;;;;;3.23;1.10;;;14.30;52.10;;;;;;5062572;28;20236;-57
2024/04/04 05:00:15;;;;;;;1.60;1.30;;;14.40;52.10;;;;;;5062758;28;20219;-57
2024/04/04 05:02:41;;;;;;;2.33;1.00;;;14.40;52.10;;;;;;5056710;28;20219;-57
2024/04/04 05:05:14;;;;;;;1.80;1.17;;;14.30;52.20;;;;;;5058995;28;20213;-56
2024/04/04 05:07:41;;;;;;;2.37;1.20;;;14.40;52.20;;;;;;5060144;28;20549;-57
2024/04/04 05:10:08;;;;;;;1.07;0.93;;;14.30;52.20;;;;;;5053557;28;20233;-57
2024/04/04 05:12:35;;;;;;;0.93;0.80;;;14.40;52.20;;;;;;5068180;28;20208;-57
2024/04/04 05:15:01;;;;;;;1.47;1.30;;;14.40;52.20;;;;;;5056608;28;20673;-57
2024/04/04 05:17:27;;;;;;;1.40;1.10;;;14.40;52.20;;;;;;5059448;28;20224;-57
2024/04/04 05:19:54;;;;;;;1.10;1.00;;;14.30;52.20;;;;;;5056096;28;20223;-57
2024/04/04 05:22:20;;;;;;;1.17;1.07;;;14.40;52.20;;;;;;5066293;28;20205;-57
2024/04/04 05:24:48;;;;;;;1.67;1.27;;;14.40;52.20;;;;;;5055325;28;20198;-57
2024/04/04 05:27:14;;;;;;;1.37;1.00;;;14.30;52.20;;;;;;5057221;28;20216;-57
2024/04/04 05:29:43;;;;;;;1.10;1.00;;;14.40;52.30;;;;;;5058245;28;20208;-57
2024/04/04 05:32:08;;;;;;;1.40;1.10;;;14.30;52.20;;;;;;5059317;28;20210;-57
2024/04/04 05:34:35;;;;;;;1.40;1.13;;;14.40;52.20;;;;;;5049298;28;20210;-57
2024/04/04 05:37:02;;;;;;;0.80;0.80;;;14.40;52.20;;;;;;5067821;28;20235;-57
2024/04/04 05:39:29;;;;;;;1.27;1.00;;;14.40;52.20;;;;;;5060665;28;20289;-57
2024/04/04 05:41:56;;;;;;;0.90;0.90;;;14.40;52.20;;;;;;5058769;28;20584;-57
2024/04/04 05:44:22;;;;;;;1.20;1.00;;;14.40;52.20;;;;;;5061531;28;20234;-57
2024/04/04 05:46:48;;;;;;;1.00;0.97;;;14.40;52.20;;;;;;5055996;28;20212;-57
2024/04/04 05:49:15;;;;;;;2.10;1.20;;;14.40;52.30;;;;;;5057163;28;20211;-57
2024/04/04 05:51:41;;;;;;;2.33;0.90;;;14.40;52.20;;;;;;5054958;28;20601;-57
2024/04/04 05:54:08;;;;;;;2.00;1.13;;;14.40;52.20;;;;;;5062086;28;20210;-57
2024/04/04 05:56:33;;;;;;;0.83;0.83;;;14.30;52.20;;;;;;5063893;28;20235;-57
2024/04/04 05:59:01;;;;;;;1.07;0.90;;;14.40;52.30;;;;;;5058254;28;20203;-57
2024/04/04 06:01:27;;;;;;;1.97;1.10;;;14.40;52.30;;;;;;5054676;28;20220;-57
2024/04/04 06:03:54;;;;;;;1.93;0.97;;;14.30;52.20;;;;;;5067076;28;20763;-57
2024/04/04 06:06:20;;;;;;;3.00;1.20;;;14.40;52.30;;;;;;5047005;28;20208;-57
2024/04/04 06:08:47;;;;;;;1.40;0.90;;;14.40;52.30;;;;;;5048479;28;20209;-57
2024/04/04 06:11:13;;;;;;;1.20;1.00;;;14.40;52.30;;;;;;5059889;28;20234;-57
2024/04/04 06:13:40;;;;;;;1.33;1.10;;;14.40;52.30;;;;;;5069448;28;20200;-57
2024/04/04 06:16:07;;;;;;;1.27;1.10;;;14.40;52.30;;;;;;5065641;28;20581;-57
2024/04/04 06:18:34;;;;;;;1.37;1.00;;;14.40;52.30;;;;;;5058602;28;20226;-57
2024/04/04 06:20:59;;;;;;;1.37;1.00;;;14.40;52.30;;;;;;5044701;28;20232;-57
2024/04/04 06:23:28;;;;;;;2.10;1.17;;;14.40;52.30;;;;;;5068227;28;20196;-57
2024/04/04 06:25:54;;;;;;;1.20;1.10;;;14.30;52.30;;;;;;5048127;28;20295;-57
2024/04/04 06:28:21;;;;;;;1.77;0.90;;;14.40;52.40;;;;;;5059712;28;20725;-56
2024/04/04 06:30:47;;;;;;;0.80;0.80;;;14.40;52.30;;;;;;5051155;28;20716;-57
2024/04/04 06:33:15;;;;;;;1.53;1.07;;;14.40;52.20;;;;;;5048572;28;20208;-57
2024/04/04 06:35:41;;;;;;;1.57;1.20;;;14.40;52.20;;;;;;5051078;28;20311;-57
2024/04/04 06:38:08;;;;;;;1.20;1.10;;;14.40;52.20;;;;;;5050676;28;20223;-57
2024/04/04 06:40:37;;;;;;;1.93;1.20;;;14.40;52.20;;;;;;5048020;28;20232;-58
2024/04/04 06:43:04;;;;;;;2.37;1.10;;;14.40;52.20;;;;;;5059630;28;20203;-57
2024/04/04 06:45:30;;;;;;;4.43;1.10;;;14.40;52.20;;;;;;5047976;28;20204;-57
2024/04/04 06:47:58;;;;;;;2.13;1.00;;;14.40;52.30;;;;;;5046379;28;20201;-57
2024/04/04 06:50:25;;;;;;;4.27;1.30;;;14.40;52.30;;;;;;5056471;28;20233;-57
2024/04/04 06:52:52;;;;;;;4.97;1.13;;;14.40;52.50;;;;;;5051671;28;20680;-57
2024/04/04 06:55:18;;;;;;;2.33;0.93;;;14.40;52.60;;;;;;5053045;28;20211;-57
2024/04/04 06:57:45;;;;;;;1.20;1.07;;;14.40;52.60;;;;;;5056287;28;20228;-57
2024/04/04 07:00:11;;;;;;;1.60;1.10;;;14.40;52.70;;;;;;5063423;28;20231;-57
2024/04/04 07:02:38;;;;;;;1.57;1.13;;;14.50;52.90;;;;;;5058445;28;20214;-57
2024/04/04 07:05:05;;;;;;;1.87;1.50;;;14.50;53.00;;;;;;5067412;28;20225;-57
2024/04/04 07:07:33;;;;;;;1.43;1.30;;;14.50;53.10;;;;;;5070206;28;20199;-57
2024/04/04 07:09:59;;;;;;;2.37;1.43;;;14.50;53.10;;;;;;5053282;28;20209;-57
2024/04/04 07:12:26;;;;;;;3.67;1.40;;;14.50;53.10;;;;;;5052525;28;20208;-57
2024/04/04 07:14:52;;;;;;;2.13;1.33;;;14.50;53.20;;;;;;5064711;28;20207;-57
2024/04/04 07:17:19;;;;;;;1.37;1.20;;;14.40;53.80;;;;;;5054005;28;20226;-57
2024/04/04 07:19:44;;;;;;;2.47;1.27;;;14.40;53.10;;;;;;5051561;28;20882;-57
2024/04/04 07:22:11;;;;;;;4.00;1.33;;;14.40;53.20;;;;;;5071888;28;20204;-57
2024/04/04 07:24:38;;;;;;;4.23;1.40;;;14.40;53.10;;;;;;5065507;28;20572;-57
2024/04/04 07:27:06;;;;;;;1.43;0.97;;;14.40;53.20;;;;;;5064659;28;20215;-57
2024/04/04 07:29:32;;;;;;;1.27;1.10;;;14.50;53.30;;;;;;5075615;28;20261;-57
2024/04/04 07:31:58;;;;;;;1.00;1.00;;;14.40;53.20;;;;;;5068163;28;20228;-57
2024/04/04 07:34:24;;;;;;;2.57;1.00;;;14.40;53.20;;;;;;5052603;28;20213;-57
2024/04/04 07:36:51;;;;;;;3.80;1.30;;;14.50;53.30;;;;;;5065653;28;20234;-57
2024/04/04 07:39:20;;;;;;;2.10;1.33;;;14.50;53.60;;;;;;5066551;28;20214;-59
2024/04/04 07:41:48;;;;;;;2.00;1.30;;;14.50;54.70;;;;;;5061728;28;20319;-57
2024/04/04 07:44:14;;;;;;;7.53;2.00;;;14.50;54.80;;;;;;5068845;28;20215;-56
2024/04/04 07:46:41;;;;;;;4.63;2.57;;;14.40;58.60;;;;;;5067240;28;20208;-57
2024/04/04 07:49:07;;;;;;;5.50;3.23;;;14.40;59.20;;;;;;5059218;28;20205;-57
2024/04/04 07:51:34;;;;;;;6.37;3.80;;;14.40;59.70;;;;;;5062287;28;20305;-56
2024/04/04 07:54:00;;;;;;;4.93;2.60;;;14.40;59.10;;;;;;5055559;28;20211;-57
2024/04/04 07:56:27;;;;;;;4.87;3.33;;;14.30;58.90;;;;;;5053862;28;20563;-56
2024/04/04 07:58:54;;;;;;;4.63;3.53;;;14.30;59.00;;;;;;5068461;28;20204;-61
2024/04/04 08:01:22;;;;;;;23.80;5.07;;;14.40;58.80;;;;;;5066297;28;20226;-63
2024/04/04 08:03:49;;;;;;;24.50;4.67;;;14.40;58.90;;;;;;5064978;28;20721;-55
2024/04/04 08:06:17;;;;;;;22.10;2.43;;;14.40;59.20;;;;;;5063537;28;20255;-55
2024/04/04 08:08:43;;;;;;;31.47;5.87;;;14.40;59.90;;;;;;5066650;28;20207;-56
2024/04/04 08:11:11;;;;;;;21.97;5.93;;;14.40;60.30;;;;;;5058574;28;20231;-56
2024/04/04 08:13:37;;;;;;;18.30;6.37;;;14.40;61.10;;;;;;5066375;28;20209;-56
2024/04/04 08:16:07;;;;;;;11.97;3.50;;;14.40;60.60;;;;;;5070686;28;20245;-56
2024/04/04 08:18:32;;;;;;;8.40;3.40;;;14.40;60.10;;;;;;5069777;28;20269;-56
2024/04/04 08:20:59;;;;;;;11.67;4.10;;;14.40;60.20;;;;;;5058453;28;20696;-57
2024/04/04 08:23:25;;;;;;;15.90;6.10;;;14.40;59.90;;;;;;5058075;28;20208;-56
2024/04/04 08:25:55;;;;;;;15.57;5.87;;;14.50;59.70;;;;;;5059500;28;20206;-56
2024/04/04 08:28:21;;;;;;;20.43;6.20;;;14.50;59.40;;;;;;5065716;28;20649;-57
2024/04/04 08:30:56;;;;;;;15.77;5.60;;;14.60;58.90;;;;;;5067332;28;20649;-56
2024/04/04 08:33:24;;;;;;;21.43;6.43;;;14.60;58.40;;;;;;5063649;28;20653;-56
2024/04/04 08:35:50;;;;;;;23.57;7.20;;;14.70;58.20;;;;;;5048634;28;20201;-56
2024/04/04 08:38:16;;;;;;;21.93;7.50;;;14.70;58.00;;;;;;5056701;28;20217;-56
2024/04/04 08:40:43;;;;;;;19.97;6.93;;;14.70;57.70;;;;;;5064858;28;20220;-56
2024/04/04 08:43:09;;;;;;;23.80;7.03;;;14.70;57.80;;;;;;5060848;28;20205;-56
2024/04/04 08:45:46;;;;;;;27.53;7.77;;;14.70;57.60;;;;;;5068391;28;20200;-57
2024/04/04 08:48:14;;;;;;;26.17;7.67;;;14.80;57.30;;;;;;5063514;28;20213;-56
2024/04/04 08:50:45;;;;;;;26.20;7.97;;;14.80;57.20;;;;;;5054074;28;20246;-57
2024/04/04 08:53:12;;;;;;;22.53;7.27;;;14.70;57.00;;;;;;5054315;28;20210;-56
2024/04/04 08:55:39;;;;;;;21.37;7.30;;;14.70;56.90;;;;;;5060324;28;20718;-57
2024/04/04 08:58:07;;;;;;;19.43;6.80;;;14.70;57.20;;;;;;5064558;28;20232;-56
2024/04/04 09:00:34;;;;;;;13.50;6.10;;;14.70;57.10;;;;;;5061673;28;20285;-56
2024/04/04 09:03:00;;;;;;;18.27;6.60;;;14.80;57.00;;;;;;5067256;28;20560;-57
2024/04/04 09:05:27;;;;;;;21.10;6.77;;;14.70;56.80;;;;;;5056222;28;20197;-56
2024/04/04 09:07:54;;;;;;;15.37;5.97;;;14.80;56.90;;;;;;5066142;28;20200;-56
2024/04/04 09:10:21;;;;;;;19.37;5.57;;;14.80;56.80;;;;;;5065781;28;20222;-56
2024/04/04 09:12:46;;;;;;;15.47;6.30;;;14.80;56.60;;;;;;5071616;28;20215;-57
2024/04/04 09:15:14;;;;;;;20.37;5.80;;;14.80;56.50;;;;;;5073548;28;20200;-57
2024/04/04 09:17:39;;;;;;;16.17;5.57;;;14.80;56.30;;;;;;5072653;28;20234;-56
2024/04/04 09:20:10;;;;;;;11.27;5.07;;;14.90;56.20;;;;;;5058658;28;20224;-56
2024/04/04 09:22:38;;;;;;;19.73;6.73;;;14.90;56.10;;;;;;5073026;28;20656;-57
2024/04/04 09:25:09;;;;;;;22.43;10.47;;;14.90;56.40;;;;;;5068883;28;20199;-56
2024/04/04 09:27:35;;;;;;;30.37;18.57;;;15.00;57.00;;;;;;5070483;28;20207;-57
2024/04/04 09:30:06;;;;;;;26.13;12.93;;;15.10;57.40;;;;;;5073145;28;20199;-57
2024/04/04 09:32:32;;;;;;;18.67;9.37;;;15.10;57.60;;;;;;5055673;28;20249;-56
2024/04/04 09:35:00;;;;;;;22.00;11.60;;;15.10;57.30;;;;;;5066309;28;20208;-56
2024/04/04 09:37:28;;;;;;;18.90;10.83;;;15.10;57.30;;;;;;5066794;28;20221;-56
2024/04/04 09:39:56;;;;;;;19.17;11.13;;;15.20;57.40;;;;;;5067082;28;20268;-56
2024/04/04 09:42:25;;;;;;;22.27;11.60;;;15.20;57.30;;;;;;5070014;28;20273;-56
2024/04/04 09:44:51;;;;;;;18.40;12.40;;;15.20;57.10;;;;;;5072429;28;20201;-56
2024/04/04 09:47:20;;;;;;;20.77;13.43;;;15.20;57.00;;;;;;5064475;28;20208;-56
2024/04/04 09:49:52;;;;;;;19.23;14.23;;;15.30;57.00;;;;;;5059518;28;20665;-56
2024/04/04 09:52:18;;;;;;;21.10;13.23;;;15.30;57.00;;;;;;5072629;28;20197;-56
2024/04/04 09:54:46;;;;;;;18.80;12.30;;;15.30;56.90;;;;;;5069282;28;20211;-56
2024/04/04 09:57:13;;;;;;;28.43;14.30;;;15.30;56.80;;;;;;5047048;28;20224;-56
2024/04/04 09:59:41;;;;;;;38.10;18.10;;;15.30;56.70;;;;;;5053243;28;20285;-56
2024/04/04 10:02:07;;;;;;;37.70;19.67;;;15.30;56.70;;;;;;5051954;28;20217;-56
2024/04/04 10:04:35;;;;;;;43.20;21.67;;;15.30;56.80;;;;;;5060790;28;20247;-56
2024/04/04 10:07:01;;;;;;;49.00;22.40;;;15.30;57.00;;;;;;5059837;28;20204;-57
2024/04/04 10:09:37;;;;;;;36.03;19.33;;;15.30;57.10;;;;;;5055950;28;20202;-57
2024/04/04 10:12:08;;;;;;;37.37;19.73;;;15.30;57.10;;;;;;5047509;28;20299;-56
2024/04/04 10:14:35;;;;;;;39.00;17.77;;;15.30;57.20;;;;;;5060692;28;20204;-56
2024/04/04 10:17:05;;;;;;;37.30;17.83;;;15.30;57.10;;;;;;5059375;28;20211;-57
2024/04/04 10:19:36;;;;;;;33.13;16.70;;;15.30;57.10;;;;;;5047864;28;20270;-56
2024/04/04 10:22:02;;;;;;;32.50;15.03;;;15.30;57.10;;;;;;5056066;28;20228;-56
2024/04/04 10:24:30;;;;;;;26.53;14.13;;;15.30;57.00;;;;;;5055506;28;20543;-56
2024/04/04 10:26:57;;;;;;;25.47;12.80;;;15.30;56.90;;;;;;5049278;28;20216;-56
2024/04/04 10:29:24;;;;;;;22.17;10.80;;;15.30;56.90;;;;;;5051021;28;20284;-57
2024/04/04 10:31:50;;;;;;;28.90;12.00;;;15.40;57.00;;;;;;5050180;28;20717;-56
2024/04/04 10:34:18;;;;;;;21.53;8.60;;;15.40;57.10;;;;;;5051358;28;20205;-56
2024/04/04 10:36:45;;;;;;;17.83;7.30;;;15.50;57.40;;;;;;5050903;28;20206;-56
2024/04/04 10:39:17;;;;;;;16.33;6.87;;;15.50;57.50;;;;;;5053107;28;20221;-56
2024/04/04 10:41:44;;;;;;;13.73;5.97;;;15.50;57.40;;;;;;5050483;28;21781;-56
2024/04/04 10:44:14;;;;;;;14.70;5.43;;;15.50;57.00;;;;;;5061292;28;20633;-56
2024/04/04 10:46:43;;;;;;;12.93;5.30;;;15.60;56.60;;;;;;5055869;28;20205;-56
2024/04/04 10:49:11;;;;;;;11.60;4.43;;;15.60;56.40;;;;;;5058421;28;20193;-56
2024/04/04 10:51:44;;;;;;;10.63;5.13;;;15.60;56.30;;;;;;5053884;28;20291;-56
2024/04/04 10:54:11;;;;;;;8.97;3.83;;;15.60;56.20;;;;;;5051043;28;20197;-56
2024/04/04 10:56:37;;;;;;;9.07;3.70;;;15.60;56.10;;;;;;5055969;28;20209;-56
2024/04/04 10:59:05;;;;;;;6.87;2.73;;;15.50;55.90;;;;;;5070492;28;20315;-56
2024/04/04 11:01:32;;;;;;;7.50;3.10;;;15.50;55.80;;;;;;5061297;28;20235;-56
2024/04/04 11:03:59;;;;;;;7.90;3.20;;;15.50;55.80;;;;;;5060145;28;20204;-56
2024/04/04 11:06:28;;;;;;;8.60;2.63;;;15.50;55.80;;;;;;5051230;28;20232;-56
2024/04/04 11:08:57;;;;;;;9.53;2.57;;;15.50;55.70;;;;;;5064827;28;20189;-56
2024/04/04 11:11:23;;;;;;;6.87;2.63;;;15.40;55.60;;;;;;5057144;28;20224;-56
2024/04/04 11:13:51;;;;;;;3.73;2.07;;;15.40;55.50;;;;;;5055801;28;20197;-56
2024/04/04 11:16:18;;;;;;;3.60;2.00;;;15.40;55.50;;;;;;5065357;28;20772;-56
2024/04/04 11:18:45;;;;;;;6.60;2.60;;;15.40;55.40;;;;;;5061275;28;20229;-56
2024/04/04 11:21:11;;;;;;;4.30;2.00;;;15.40;56.10;;;;;;5056466;28;20221;-56
2024/04/04 11:23:38;;;;;;;3.23;1.87;;;15.40;55.40;;;;;;5061950;28;20323;-56
2024/04/04 11:26:06;;;;;;;5.37;2.07;;;15.40;55.40;;;;;;5055537;28;20212;-56
2024/04/04 11:28:32;;;;;;;4.10;2.17;;;15.40;55.30;;;;;;5056125;28;20296;-56
2024/04/04 11:30:58;;;;;;;3.57;1.83;;;15.40;55.20;;;;;;5053139;28;20226;-56
2024/04/04 11:33:25;;;;;;;3.53;1.60;;;15.40;55.20;;;;;;5052809;28;20633;-56
2024/04/04 11:35:51;;;;;;;6.77;2.00;;;15.40;55.10;;;;;;5057293;28;20208;-56
2024/04/04 11:38:17;;;;;;;4.17;1.80;;;15.40;55.10;;;;;;5056385;28;20239;-56
2024/04/04 11:40:43;;;;;;;4.27;1.70;;;15.40;55.00;;;;;;5055770;28;20248;-56
2024/04/04 11:43:11;;;;;;;3.00;1.47;;;15.40;55.00;;;;;;5068520;28;20646;-56
2024/04/04 11:45:38;;;;;;;2.93;1.50;;;15.40;54.90;;;;;;5057027;28;20305;-56
2024/04/04 11:48:06;;;;;;;2.70;1.23;;;15.40;54.80;;;;;;5057175;28;20305;-56
2024/04/04 11:50:32;;;;;;;3.40;1.53;;;15.50;54.80;;;;;;5047827;28;20233;-56
2024/04/04 11:53:01;;;;;;;5.17;1.63;;;15.50;54.80;;;;;;5057147;28;20572;-56
2024/04/04 11:55:27;;;;;;;3.63;1.20;;;15.50;54.70;;;;;;5053429;28;20206;-56
2024/04/04 11:57:54;;;;;;;3.97;1.37;;;15.50;54.60;;;;;;5063116;28;20267;-56
2024/04/04 12:00:23;;;;;;;2.93;1.30;;;15.50;54.60;;;;;;5062611;28;20771;-56
2024/04/04 12:02:51;;;;;;;2.80;1.40;;;15.50;54.60;;;;;;5066953;28;20209;-56
2024/04/04 12:05:17;;;;;;;2.70;1.20;;;15.50;54.60;;;;;;5056980;28;20215;-56
2024/04/04 12:07:44;;;;;;;3.77;1.30;;;15.50;54.60;;;;;;5059709;28;20264;-56
2024/04/04 12:10:12;;;;;;;3.90;1.33;;;15.50;55.30;;;;;;5057616;28;20284;-56
2024/04/04 12:12:39;;;;;;;2.70;1.20;;;15.50;54.90;;;;;;5061490;28;20216;-56
2024/04/04 12:15:07;;;;;;;3.30;1.30;;;15.50;55.20;;;;;;5061920;28;20209;-56
2024/04/04 12:17:39;;;;;;;3.70;1.47;;;15.50;55.30;;;;;;5062684;28;20240;-56
2024/04/04 12:20:08;;;;;;;3.47;1.37;;;15.50;55.20;;;;;;5056356;28;20230;-56
2024/04/04 12:22:36;;;;;;;5.10;1.53;;;15.50;55.20;;;;;;5061159;28;20205;-56
2024/04/04 12:25:03;;;;;;;2.10;1.30;;;15.50;55.20;;;;;;5060648;28;20218;-56
2024/04/04 12:27:29;;;;;;;2.50;1.30;;;15.50;55.20;;;;;;5052295;28;20576;-56
2024/04/04 12:29:56;;;;;;;1.67;1.10;;;15.50;55.30;;;;;;5053950;28;20200;-56
2024/04/04 12:32:21;;;;;;;4.60;1.50;;;15.50;55.50;;;;;;5049567;28;20201;-56
2024/04/04 12:34:50;;;;;;;2.37;1.30;;;15.50;55.40;;;;;;5060361;28;20289;-56
2024/04/04 12:37:15;;;;;;;2.80;1.50;;;15.60;55.40;;;;;;5055608;28;20582;-56
2024/04/04 12:39:42;;;;;;;2.77;1.30;;;15.60;55.40;;;;;;5065518;28;20220;-56
2024/04/04 12:42:08;;;;;;;2.83;1.40;;;15.50;55.40;;;;;;5053681;28;20653;-56
2024/04/04 12:44:35;;;;;;;2.50;1.33;;;15.60;55.40;;;;;;5057424;28;20205;-56